Hauptseite
METAR-TAF:

METAR-TAF

Flughäfen :

La Chaux-de-Fonds, Schweiz

Flugplatz Les Eplatures

Breite: 47-05-03N, Länge: 006-47-37E, Höhe: 1027 m

Beobachtung

Neuester Wetterbericht von vor 23 Minuten, um 13:20 UTC
Wind 9 kt aus Ost/Nordost, variierte zwischen Nordost und Südost
Temperatur -3°C
Luftfeuchtigkeit 86%
Luftdruck 1008 hPa
Sichtweite: 8000 m
Aufgelockert bewölkt in der Höhe von 900 ft

METAR: LSGC 241320Z 07009KT 040V140 8000 SCT009 M03/M05 Q1008

Zeit: 14:43 (13:43 UTC)

Prognose

Neuester Wetterbericht von vor 2 Stunden und 18 Minuten, um 11:25 UTC
Gültige Prognose vom 24 um 12 UTC bis 24 um 21 UTC
Wind 9 kt aus Ost
Sichtweite 10 km oder mehr
Leicht bewölkt in der Höhe von 1000 ft
Übergehend zu
vom 24 um 12 UTC bis 24 um 14 UTC
Sichtweite 10 km oder mehr
keine Wolken unter 1500 m und keine Kumulonimbus oder Gewitterwolken

TAF: LSGC 241125Z 2412/2421 08009KT 9999 FEW010 BECMG 2412/2414 CAVOK

Wetterbeobachtungen und Prognosen von mehr als 4000 Flughäfen (METAR und TAF Bericht).

Die verfügbaren Stationen werden durch gelbe und rote Markierungen auf der Karte dargestellt.

Führen Sie die Maus auf sie, um den Namen der Station zu sehen.

Darauf klicken, um die Beobachtung von Wetterbeobachtungen und Prognosen zu sehen.

Um die Karte zu ändern : klicken Sie auf den grünen Tasten mit einem schwarzen Kreuz Zum Vergrößern, auf den grünen Button mit einem Gedankenstrich zu verkleinern, oder auf die grünen Pfeile für benachbarte Karten.


METAR-TAF: